createdAt,value
2019-02-06T00:00:44.827Z,101729.81
2019-02-06T00:03:34.762Z,101731.16
2019-02-06T00:06:24.715Z,101738.83
2019-02-06T00:09:15.393Z,101741.02
2019-02-06T00:12:05.103Z,101739.02
2019-02-06T00:14:55.076Z,101740.67
2019-02-06T00:17:44.730Z,101730.93
2019-02-06T00:20:34.405Z,101738.47
2019-02-06T00:23:24.504Z,101740.49
2019-02-06T00:26:14.423Z,101740.17
2019-02-06T00:29:04.833Z,101744.67
2019-02-06T00:31:54.531Z,101749.69
2019-02-06T00:34:45.681Z,101751.02
2019-02-06T00:37:35.719Z,101749.38
2019-02-06T00:40:25.512Z,101748.70
2019-02-06T00:43:15.410Z,101738.64
2019-02-06T00:46:05.808Z,101753.89
2019-02-06T00:48:55.557Z,101747.36
2019-02-06T00:51:45.354Z,101739.63
2019-02-06T00:54:35.476Z,101740.30
2019-02-06T00:57:25.702Z,101759.71
2019-02-06T01:00:21.409Z,101735.30
2019-02-06T01:03:11.726Z,101736.64
2019-02-06T01:06:01.784Z,101733.30
2019-02-06T01:08:51.883Z,101730.78
2019-02-06T01:11:41.896Z,101727.74
2019-02-06T01:14:31.942Z,101730.61
2019-02-06T01:17:21.484Z,101733.61
2019-02-06T01:20:13.262Z,101725.91
2019-02-06T01:23:03.321Z,101722.88
2019-02-06T01:25:53.202Z,101720.20
2019-02-06T01:28:43.767Z,101718.67
2019-02-06T01:31:34.321Z,101719.69
2019-02-06T01:34:24.031Z,101713.98
2019-02-06T01:37:13.888Z,101711.16
2019-02-06T01:40:03.836Z,101713.12
2019-02-06T01:42:53.792Z,101714.63
2019-02-06T01:45:43.565Z,101722.31
2019-02-06T01:48:33.480Z,101725.53
2019-02-06T01:51:23.474Z,101721.52
2019-02-06T01:54:13.536Z,101718.46
2019-02-06T01:57:03.509Z,101717.62
2019-02-06T01:59:53.726Z,101713.11
2019-02-06T02:02:43.801Z,101704.87
2019-02-06T02:05:34.545Z,101703.33
2019-02-06T02:08:25.167Z,101704.08
2019-02-06T02:11:15.401Z,101707.54
2019-02-06T02:14:06.624Z,101717.20
2019-02-06T02:16:56.790Z,101709.80
2019-02-06T02:19:46.380Z,101710.12
2019-02-06T02:22:35.984Z,101711.13
2019-02-06T02:25:26.269Z,101710.72
2019-02-06T02:28:16.474Z,101709.84
2019-02-06T02:31:06.476Z,101711.95
2019-02-06T02:33:56.713Z,101701.50
2019-02-06T02:36:46.430Z,101701.75
2019-02-06T02:39:36.598Z,101695.16
2019-02-06T02:42:26.765Z,101694.09
2019-02-06T02:45:18.107Z,101694.20
2019-02-06T02:48:08.221Z,101697.85
2019-02-06T02:50:58.331Z,101696.09
2019-02-06T02:53:48.619Z,101696.58
2019-02-06T02:56:38.421Z,101694.66
2019-02-06T02:59:27.891Z,101692.23
2019-02-06T03:02:44.724Z,101694.84
2019-02-06T03:05:35.982Z,101694.73
2019-02-06T03:08:25.787Z,101685.30
2019-02-06T03:11:15.606Z,101688.91
2019-02-06T03:14:05.737Z,101683.66
2019-02-06T03:16:55.653Z,101686.33
2019-02-06T03:19:45.845Z,101682.97
2019-02-06T03:22:35.960Z,101683.78
2019-02-06T03:25:25.831Z,101672.17
2019-02-06T03:28:15.995Z,101673.22
2019-02-06T03:31:06.024Z,101667.55
2019-02-06T03:33:56.979Z,101674.80
2019-02-06T03:36:47.137Z,101669.73
2019-02-06T03:39:36.732Z,101677.66
2019-02-06T03:42:26.955Z,101664.27
2019-02-06T03:45:16.820Z,101670.20
2019-02-06T03:48:07.248Z,101671.09
2019-02-06T03:50:57.461Z,101669.88
2019-02-06T03:53:47.573Z,101669.67
2019-02-06T03:56:37.489Z,101671.95
2019-02-06T03:59:27.355Z,101670.55
2019-02-06T04:02:17.248Z,101666.91
2019-02-06T04:05:08.719Z,101658.48
2019-02-06T04:07:58.218Z,101665.38
2019-02-06T04:10:48.566Z,101653.91
2019-02-06T04:13:38.510Z,101662.89
2019-02-06T04:16:28.683Z,101652.06
2019-02-06T04:19:19.114Z,101656.92
2019-02-06T04:22:08.968Z,101658.41
2019-02-06T04:24:58.900Z,101645.66
2019-02-06T04:27:48.973Z,101650.15
2019-02-06T04:30:39.227Z,101654.43
2019-02-06T04:33:29.434Z,101652.77
2019-02-06T04:36:19.457Z,101653.52
2019-02-06T04:39:09.962Z,101653.05
2019-02-06T04:42:00.402Z,101647.70
2019-02-06T04:44:50.342Z,101650.31
2019-02-06T04:47:40.302Z,101654.73
2019-02-06T04:50:30.480Z,101648.70
2019-02-06T04:53:20.589Z,101652.28
2019-02-06T04:56:10.787Z,101652.37
2019-02-06T04:59:00.346Z,101648.06
2019-02-06T05:01:50.520Z,101648.22
2019-02-06T05:04:41.732Z,101647.64
2019-02-06T05:07:31.512Z,101652.69
2019-02-06T05:10:21.636Z,101650.61
2019-02-06T05:13:11.278Z,101651.84
2019-02-06T05:16:01.058Z,101648.69
2019-02-06T05:18:50.932Z,101652.12
2019-02-06T05:21:40.853Z,101650.03
2019-02-06T05:24:30.781Z,101648.89
2019-02-06T05:27:20.757Z,101654.63
2019-02-06T05:30:11.810Z,101658.91
2019-02-06T05:33:01.538Z,101662.11
2019-02-06T05:35:51.043Z,101665.77
2019-02-06T05:38:45.455Z,101664.02
2019-02-06T05:41:35.441Z,101670.17
2019-02-06T05:44:25.362Z,101667.80
2019-02-06T05:47:15.379Z,101665.70
2019-02-06T05:50:06.196Z,101661.38
2019-02-06T05:52:55.916Z,101663.56
2019-02-06T05:55:45.969Z,101666.81
2019-02-06T05:58:35.707Z,101665.59
2019-02-06T06:01:28.832Z,101665.00
2019-02-06T06:04:18.392Z,101663.30
2019-02-06T06:07:08.457Z,101667.14
2019-02-06T06:09:57.594Z,101664.63
2019-02-06T06:12:47.812Z,101665.59
2019-02-06T06:15:37.786Z,101661.60
2019-02-06T06:18:27.953Z,101664.33
2019-02-06T06:21:17.659Z,101666.84
2019-02-06T06:24:09.122Z,101665.22
2019-02-06T06:26:58.835Z,101668.89
2019-02-06T06:29:48.864Z,101657.28
2019-02-06T06:32:38.907Z,101655.44
2019-02-06T06:35:28.903Z,101659.87
2019-02-06T06:38:19.126Z,101657.58
2019-02-06T06:41:09.485Z,101655.44
2019-02-06T06:43:59.251Z,101658.53
2019-02-06T06:46:49.878Z,101653.84
2019-02-06T06:49:39.740Z,101661.27
2019-02-06T06:52:29.797Z,101653.29
2019-02-06T06:55:19.921Z,101653.51
2019-02-06T06:58:09.721Z,101654.28
2019-02-06T07:00:59.448Z,101661.56
2019-02-06T07:03:49.703Z,101658.91
2019-02-06T07:06:39.478Z,101656.36
2019-02-06T07:09:29.333Z,101645.64
2019-02-06T07:12:18.955Z,101636.39
2019-02-06T07:15:19.283Z,101637.47
2019-02-06T07:18:09.085Z,101632.84
2019-02-06T07:21:01.415Z,101633.33
2019-02-06T07:23:50.688Z,101636.91
2019-02-06T07:26:40.818Z,101636.19
2019-02-06T07:29:30.411Z,101638.33
2019-02-06T07:32:20.903Z,101642.68
2019-02-06T07:35:11.014Z,101638.69
2019-02-06T07:38:00.740Z,101634.88
2019-02-06T07:40:50.125Z,101636.24
2019-02-06T07:43:39.845Z,101632.58
2019-02-06T07:46:29.897Z,101633.08
2019-02-06T07:49:19.694Z,101616.55
2019-02-06T07:52:09.675Z,101615.88
2019-02-06T07:54:59.552Z,101607.89
2019-02-06T07:57:49.520Z,101612.58
2019-02-06T08:00:38.975Z,101609.96
2019-02-06T08:03:28.872Z,101603.74
2019-02-06T08:06:19.436Z,101599.92
2019-02-06T08:09:10.610Z,101605.60
2019-02-06T08:12:00.524Z,101604.48
2019-02-06T08:14:50.155Z,101594.62
2019-02-06T08:17:39.866Z,101584.08
2019-02-06T08:20:30.331Z,101591.23
2019-02-06T08:23:20.127Z,101584.70
2019-02-06T08:26:09.886Z,101585.34
2019-02-06T08:28:59.960Z,101582.94
2019-02-06T08:31:50.356Z,101585.22
2019-02-06T08:34:40.739Z,101593.31
2019-02-06T08:37:30.759Z,101593.02
2019-02-06T08:40:23.365Z,101591.02
2019-02-06T08:43:12.930Z,101584.33
2019-02-06T08:46:02.761Z,101582.32
2019-02-06T08:48:52.490Z,101584.66
2019-02-06T08:51:42.613Z,101585.98
2019-02-06T08:54:32.557Z,101579.10
2019-02-06T08:57:21.926Z,101579.09
2019-02-06T09:00:20.771Z,101576.73
2019-02-06T09:03:12.123Z,101570.14
2019-02-06T09:06:01.957Z,101567.64
2019-02-06T09:08:59.266Z,101576.25
2019-02-06T09:11:43.592Z,101576.59
2019-02-06T09:14:33.864Z,101576.25
2019-02-06T09:17:23.906Z,101563.84
2019-02-06T09:20:18.399Z,101558.34
2019-02-06T09:23:08.410Z,101562.37
2019-02-06T09:25:58.515Z,101553.88
2019-02-06T09:28:48.365Z,101552.73
2019-02-06T09:31:37.593Z,101550.43
2019-02-06T09:34:27.467Z,101541.69
2019-02-06T09:37:17.087Z,101539.31
2019-02-06T09:40:08.259Z,101532.13
2019-02-06T09:42:57.727Z,101523.70
2019-02-06T09:45:47.650Z,101513.86
2019-02-06T09:48:37.990Z,101528.50
2019-02-06T09:51:27.980Z,101527.75
2019-02-06T09:54:17.743Z,101523.92
2019-02-06T09:57:07.323Z,101517.05
2019-02-06T09:59:57.939Z,101520.05
2019-02-06T10:02:48.170Z,101516.98
2019-02-06T10:05:38.849Z,101517.52
2019-02-06T10:08:29.054Z,101515.05
2019-02-06T10:11:18.933Z,101514.17
2019-02-06T10:14:09.202Z,101516.61
2019-02-06T10:16:59.504Z,101497.25
2019-02-06T10:19:49.181Z,101496.09
2019-02-06T10:22:39.086Z,101480.69
2019-02-06T10:25:28.570Z,101493.39
2019-02-06T10:28:18.796Z,101492.86
2019-02-06T10:31:08.594Z,101494.31
2019-02-06T10:33:58.708Z,101491.37
2019-02-06T10:36:50.036Z,101495.94
2019-02-06T10:39:39.687Z,101492.23
2019-02-06T10:42:29.353Z,101485.78
2019-02-06T10:45:21.132Z,101482.39
2019-02-06T10:48:11.212Z,101470.56
2019-02-06T10:51:02.235Z,101468.08
2019-02-06T10:53:52.308Z,101466.06
2019-02-06T10:56:42.195Z,101454.09
2019-02-06T10:59:31.860Z,101449.47
2019-02-06T11:02:21.675Z,101453.43
2019-02-06T11:05:11.979Z,101449.31
2019-02-06T11:08:02.120Z,101444.59
2019-02-06T11:10:52.535Z,101431.23
2019-02-06T11:13:42.163Z,101416.89
2019-02-06T11:16:32.365Z,101410.94
2019-02-06T11:19:22.524Z,101410.17
2019-02-06T11:22:12.780Z,101404.89
2019-02-06T11:25:04.626Z,101404.23
2019-02-06T11:27:54.357Z,101399.97
2019-02-06T11:30:44.587Z,101384.12
2019-02-06T11:33:34.417Z,101381.86
2019-02-06T11:36:25.028Z,101372.53
2019-02-06T11:39:21.722Z,101369.99
2019-02-06T11:42:11.499Z,101358.89
2019-02-06T11:45:02.163Z,101362.53
2019-02-06T11:47:52.060Z,101367.30
2019-02-06T11:50:43.484Z,101365.03
2019-02-06T11:53:35.055Z,101360.55
2019-02-06T11:56:24.892Z,101351.59
2019-02-06T11:59:15.040Z,101352.19
2019-02-06T12:02:05.665Z,101349.31
2019-02-06T12:04:56.031Z,101352.66
2019-02-06T12:07:46.002Z,101348.83
2019-02-06T12:10:36.292Z,101335.08
2019-02-06T12:13:27.018Z,101325.77
2019-02-06T12:16:17.077Z,101313.33
2019-02-06T12:19:08.604Z,101318.63
2019-02-06T12:21:58.708Z,101311.55
2019-02-06T12:24:48.255Z,101317.71
2019-02-06T12:27:38.378Z,101305.39
2019-02-06T12:30:33.354Z,101288.38
2019-02-06T12:33:23.347Z,101287.47
2019-02-06T12:36:15.732Z,101289.64
2019-02-06T12:39:09.431Z,101284.98
2019-02-06T12:42:00.110Z,101285.42
2019-02-06T12:44:50.066Z,101280.50
2019-02-06T12:47:39.741Z,101283.16
2019-02-06T12:50:30.245Z,101283.47
2019-02-06T12:53:19.966Z,101285.73
2019-02-06T12:56:09.616Z,101280.14
2019-02-06T12:58:59.526Z,101276.98
2019-02-06T13:01:49.658Z,101268.97
2019-02-06T13:04:39.677Z,101271.91
2019-02-06T13:07:29.898Z,101271.03
2019-02-06T13:10:20.216Z,101272.92
2019-02-06T13:13:09.754Z,101267.80
2019-02-06T13:15:59.899Z,101264.47
2019-02-06T13:18:49.767Z,101259.55
2019-02-06T13:21:40.027Z,101258.80
2019-02-06T13:24:30.264Z,101252.41
2019-02-06T13:27:19.940Z,101248.14
2019-02-06T13:30:17.958Z,101246.38
2019-02-06T13:33:11.752Z,101246.04
2019-02-06T13:36:01.071Z,101243.02
2019-02-06T13:38:51.648Z,101232.20
2019-02-06T13:41:41.954Z,101234.55
2019-02-06T13:44:31.540Z,101226.66
2019-02-06T13:47:21.683Z,101226.89
2019-02-06T13:50:21.726Z,101225.33
2019-02-06T13:53:04.098Z,101220.28
2019-02-06T13:55:54.636Z,101216.78
2019-02-06T13:58:44.902Z,101210.95
2019-02-06T14:01:34.935Z,101211.58
2019-02-06T14:04:24.863Z,101213.59
2019-02-06T14:07:14.888Z,101206.75
2019-02-06T14:10:06.223Z,101215.21
2019-02-06T14:12:56.790Z,101210.89
2019-02-06T14:15:49.137Z,101205.02
2019-02-06T14:18:39.433Z,101197.30
2019-02-06T14:21:30.265Z,101194.48
2019-02-06T14:24:43.414Z,101195.71
2019-02-06T14:28:14.747Z,101189.37
2019-02-06T14:31:58.850Z,101181.42
2019-02-06T14:35:20.248Z,101177.23
2019-02-06T14:39:10.933Z,101176.95
2019-02-06T14:42:51.429Z,101174.56
2019-02-06T14:46:23.546Z,101178.11
2019-02-06T14:50:07.141Z,101177.28
2019-02-06T14:53:50.111Z,101172.36
2019-02-06T14:57:26.217Z,101168.89
2019-02-06T15:00:35.214Z,101178.08
2019-02-06T15:04:31.383Z,101173.07
2019-02-06T15:07:54.449Z,101174.30
2019-02-06T15:11:19.336Z,101161.66
2019-02-06T15:14:52.555Z,101158.72
2019-02-06T15:18:31.438Z,101157.62
2019-02-06T15:22:11.415Z,101149.66
2019-02-06T15:25:54.983Z,101145.73
2019-02-06T15:29:43.007Z,101141.20
2019-02-06T15:33:26.545Z,101134.46
2019-02-06T15:37:22.299Z,101133.67
2019-02-06T15:40:45.042Z,101132.59
2019-02-06T15:44:31.357Z,101134.52
2019-02-06T15:47:52.830Z,101131.91
2019-02-06T15:51:47.665Z,101131.91
2019-02-06T15:55:43.059Z,101129.84
2019-02-06T15:59:14.227Z,101122.73
2019-02-06T16:02:26.984Z,101123.14
2019-02-06T16:06:02.176Z,101116.36
2019-02-06T16:09:26.488Z,101106.62
2019-02-06T16:12:57.222Z,101109.78
2019-02-06T16:16:28.251Z,101104.45
2019-02-06T16:20:08.034Z,101100.55
2019-02-06T16:23:31.909Z,101103.05
2019-02-06T16:27:06.957Z,101104.56
2019-02-06T16:30:53.440Z,101103.08
2019-02-06T16:34:35.469Z,101096.16
2019-02-06T16:37:55.588Z,101102.34
2019-02-06T16:41:58.761Z,101111.53
2019-02-06T16:45:53.417Z,101117.14
2019-02-06T16:49:33.926Z,101108.66
2019-02-06T16:52:46.940Z,101113.75
2019-02-06T16:56:19.008Z,101109.72
2019-02-06T16:59:42.475Z,101113.53
2019-02-06T17:03:27.555Z,101110.59
2019-02-06T17:06:43.248Z,101101.61
2019-02-06T17:10:12.139Z,101028.09
2019-02-06T17:14:18.419Z,101107.47
2019-02-06T17:17:35.987Z,101099.81
2019-02-06T17:20:51.121Z,101096.55
2019-02-06T17:23:57.109Z,101103.21
2019-02-06T17:27:20.491Z,101103.11
2019-02-06T17:31:18.431Z,101103.67
2019-02-06T17:34:52.244Z,101102.28
2019-02-06T17:38:31.188Z,101097.66
2019-02-06T17:41:29.753Z,101098.75
2019-02-06T17:44:55.485Z,101092.30
2019-02-06T17:48:56.199Z,101089.16
2019-02-06T17:52:07.296Z,101085.74
2019-02-06T17:55:21.103Z,101091.46
2019-02-06T17:58:12.893Z,101097.36
2019-02-06T18:01:47.830Z,101090.00
2019-02-06T18:04:42.920Z,101101.19
2019-02-06T18:07:32.986Z,101104.77
2019-02-06T18:10:22.059Z,101102.08
2019-02-06T18:13:12.025Z,101101.39
2019-02-06T18:16:01.975Z,101100.74
2019-02-06T18:18:51.447Z,101094.77
2019-02-06T18:21:40.902Z,101099.09
2019-02-06T18:24:31.101Z,100771.38
2019-02-06T18:27:21.873Z,101087.73
2019-02-06T18:30:15.139Z,101079.87
2019-02-06T18:33:06.687Z,101076.74
2019-02-06T18:35:57.360Z,101083.28
2019-02-06T18:38:51.397Z,101079.27
2019-02-06T18:41:41.723Z,101073.45
2019-02-06T18:44:31.470Z,101080.19
2019-02-06T18:47:23.065Z,101083.03
2019-02-06T18:50:19.337Z,101076.86
2019-02-06T18:53:10.303Z,101078.90
2019-02-06T18:56:00.793Z,101078.59
2019-02-06T18:58:50.708Z,101074.57
2019-02-06T19:01:40.977Z,101073.23
2019-02-06T19:04:30.887Z,101080.31
2019-02-06T19:07:20.485Z,101080.31
2019-02-06T19:10:12.993Z,101075.18
2019-02-06T19:13:02.840Z,101073.50
2019-02-06T19:15:56.519Z,101075.21
2019-02-06T19:18:44.566Z,101071.84
2019-02-06T19:21:34.038Z,101065.68
2019-02-06T19:24:24.246Z,101071.38
2019-02-06T19:27:14.595Z,101058.83
2019-02-06T19:30:13.145Z,101057.52
2019-02-06T19:33:02.646Z,101044.66
2019-02-06T19:35:52.588Z,101038.18
2019-02-06T19:38:42.784Z,101030.98
2019-02-06T19:41:33.102Z,101024.51
2019-02-06T19:44:22.538Z,101023.05
2019-02-06T19:47:12.676Z,101034.60
2019-02-06T19:50:02.869Z,101031.95
2019-02-06T19:52:54.789Z,101027.47
2019-02-06T19:55:44.910Z,101026.47
2019-02-06T19:58:35.293Z,101023.47
2019-02-06T20:01:25.095Z,101023.69
2019-02-06T20:04:15.753Z,101014.18
2019-02-06T20:07:06.251Z,101019.22
2019-02-06T20:09:57.179Z,101010.55
2019-02-06T20:12:47.406Z,101016.77
2019-02-06T20:15:36.991Z,101012.27
2019-02-06T20:18:26.418Z,101016.63
2019-02-06T20:21:19.797Z,101015.65
2019-02-06T20:24:09.332Z,101023.21
2019-02-06T20:26:59.098Z,101024.90
2019-02-06T20:29:48.973Z,101020.73
2019-02-06T20:32:39.194Z,101022.73
2019-02-06T20:35:29.362Z,101011.23
2019-02-06T20:38:19.632Z,101000.54
2019-02-06T20:41:09.194Z,100996.70
2019-02-06T20:43:59.189Z,100999.39
2019-02-06T20:46:49.540Z,100994.89
2019-02-06T20:49:39.585Z,100998.73
2019-02-06T20:52:29.018Z,101000.74
2019-02-06T20:55:19.526Z,100999.41
2019-02-06T20:58:11.638Z,100995.90
2019-02-06T21:01:01.273Z,100990.71
2019-02-06T21:03:56.252Z,100986.36
2019-02-06T21:06:46.736Z,100991.04
2019-02-06T21:09:36.424Z,100984.55
2019-02-06T21:12:26.338Z,100987.05
2019-02-06T21:15:16.387Z,100980.86
2019-02-06T21:18:06.483Z,100974.68
2019-02-06T21:20:56.390Z,100983.36
2019-02-06T21:23:46.909Z,100981.68
2019-02-06T21:26:37.730Z,100978.35
2019-02-06T21:29:27.461Z,100983.20
2019-02-06T21:32:17.559Z,100978.00
2019-02-06T21:35:08.794Z,100984.69
2019-02-06T21:37:59.261Z,100978.82
2019-02-06T21:40:49.675Z,100977.84
2019-02-06T21:43:44.139Z,100978.82
2019-02-06T21:46:31.776Z,100975.98
2019-02-06T21:49:21.930Z,100971.66
2019-02-06T21:52:11.932Z,100968.47
2019-02-06T21:55:01.546Z,100965.13
2019-02-06T21:57:51.830Z,100955.61
2019-02-06T22:00:43.621Z,100947.58
2019-02-06T22:03:34.940Z,100943.58
2019-02-06T22:06:24.895Z,100940.23
2019-02-06T22:09:15.303Z,100927.39
2019-02-06T22:12:05.422Z,100933.56
2019-02-06T22:14:55.730Z,100929.22
2019-02-06T22:17:45.493Z,100917.88
2019-02-06T22:20:35.426Z,100914.72
2019-02-06T22:23:25.548Z,100914.05
2019-02-06T22:26:15.676Z,100906.86
2019-02-06T22:29:05.474Z,100904.19
2019-02-06T22:31:55.063Z,100896.19
2019-02-06T22:34:45.324Z,100892.85
2019-02-06T22:37:35.287Z,100898.85
2019-02-06T22:40:26.074Z,100896.85
2019-02-06T22:43:15.566Z,100892.36
2019-02-06T22:46:05.600Z,100892.85
2019-02-06T22:48:55.489Z,100889.34
2019-02-06T22:51:45.318Z,100887.52
2019-02-06T22:54:35.030Z,100879.86
2019-02-06T22:57:24.977Z,100874.53
2019-02-06T23:01:21.418Z,100878.03
2019-02-06T23:04:11.363Z,100877.86
2019-02-06T23:07:02.275Z,100862.03
2019-02-06T23:09:52.193Z,100857.53
2019-02-06T23:12:42.271Z,100851.36
2019-02-06T23:15:32.062Z,100858.02
2019-02-06T23:18:22.074Z,100866.19
2019-02-06T23:21:11.870Z,100870.89
2019-02-06T23:24:01.924Z,100873.38
2019-02-06T23:26:52.888Z,100867.36
2019-02-06T23:29:42.873Z,100865.22
2019-02-06T23:32:33.422Z,100860.87
2019-02-06T23:35:23.486Z,100857.19
2019-02-06T23:38:13.379Z,100855.55
2019-02-06T23:41:03.262Z,100853.38
2019-02-06T23:43:53.365Z,100853.35
2019-02-06T23:46:43.204Z,100844.37
2019-02-06T23:49:33.062Z,100846.69
2019-02-06T23:52:23.172Z,100840.86
2019-02-06T23:55:14.812Z,100824.19
2019-02-06T23:58:05.713Z,100821.17
